Decoded Metar for KNGP (C. CHRISTI NAS in TX, USA) (IATA:NGP) | Meteo·Mobile Aviation Weather
aviador You're here:

KNGP Decoded Metar

C. CHRISTI NAS in TX, USA
Report Time2019-03-19 17:56:00
UTC Time2019-03-19 18:45:51
Flight Rules vfr VFR
Wind050° at 12 kt
W.Decomp.*RWY 04: 12.0 kt HW 0.8 kt RCW
RWY 35: 7.1 kt HW 9.7 kt RCW
RWY 13: 0.8 kt HW 12 kt LCW
W.Rank050° ranks 16
Current wind is above 050° avg. (10.5)
Visibility9999 m
Phenomena:N/A
Clouds:Overcast 050 Hf
Expected CloudBase > 2,800 ft AGL from Temp-Dew spread
Ceiling5,000 ft
Temp21°C (ISA +6)
Dew Point14°C (64% RH)
AAT17.9°C
QNH1024 hPa
Density Alt571 ft
Elevation20 ft
Report Wrong Elevation
Raw Report
KNGP 191756Z 05012KT 10SM OVC050 21/14 A3023 RMK AO2 SLP237
T02060144 10206 20161 50001 $=

Extra information for KNGP:More info

Metar Taf Metar & Taf Last 4 Metars F.Rules Stats Wind Profile Meteogram Temp Stats Airport Information Weather charts Add Link Nearby VenuesMetar ALERT Operation Metar Decoded Social comments

AIRNAV info for KNGP